sensor_id;sensor_type;location;lat;lon;timestamp;temperature;humidity
43627;DHT22;29217;52.586;13.442;2022-08-04T00:00:15;21.20;99.90
43627;DHT22;29217;52.586;13.442;2022-08-04T00:03:01;21.10;99.90
43627;DHT22;29217;52.586;13.442;2022-08-04T00:08:10;21.20;99.90
43627;DHT22;29217;52.586;13.442;2022-08-04T00:10:38;21.20;99.90
43627;DHT22;29217;52.586;13.442;2022-08-04T00:13:05;21.20;99.90
43627;DHT22;29217;52.586;13.442;2022-08-04T00:15:32;21.20;99.90
43627;DHT22;29217;52.586;13.442;2022-08-04T00:18:02;21.20;99.90
43627;DHT22;29217;52.586;13.442;2022-08-04T00:20:33;21.20;99.90
43627;DHT22;29217;52.586;13.442;2022-08-04T00:23:02;21.20;99.90
43627;DHT22;29217;52.586;13.442;2022-08-04T00:25:28;21.20;99.90
43627;DHT22;29217;52.586;13.442;2022-08-04T00:27:54;21.20;99.90
43627;DHT22;29217;52.586;13.442;2022-08-04T00:30:20;21.10;99.90
43627;DHT22;29217;52.586;13.442;2022-08-04T00:32:46;21.10;99.90
43627;DHT22;29217;52.586;13.442;2022-08-04T00:35:15;21.10;99.90
43627;DHT22;29217;52.586;13.442;2022-08-04T00:37:43;21.10;99.90
43627;DHT22;29217;52.586;13.442;2022-08-04T00:40:22;21.10;99.90
43627;DHT22;29217;52.586;13.442;2022-08-04T00:42:58;21.00;99.90
43627;DHT22;29217;52.586;13.442;2022-08-04T00:45:49;21.00;99.90
43627;DHT22;29217;52.586;13.442;2022-08-04T00:51:29;21.00;99.90
43627;DHT22;29217;52.586;13.442;2022-08-04T01:02:35;20.90;99.90
43627;DHT22;29217;52.586;13.442;2022-08-04T01:08:08;20.80;99.90
43627;DHT22;29217;52.586;13.442;2022-08-04T01:11:09;20.80;99.90
43627;DHT22;29217;52.586;13.442;2022-08-04T01:13:51;20.80;99.90
43627;DHT22;29217;52.586;13.442;2022-08-04T01:16:24;20.60;99.90
43627;DHT22;29217;52.586;13.442;2022-08-04T01:18:59;20.60;99.90
43627;DHT22;29217;52.586;13.442;2022-08-04T01:29:13;20.60;99.90
43627;DHT22;29217;52.586;13.442;2022-08-04T01:32:01;20.60;99.90
43627;DHT22;29217;52.586;13.442;2022-08-04T01:34:29;20.60;99.90
43627;DHT22;29217;52.586;13.442;2022-08-04T01:37:08;20.50;99.90
43627;DHT22;29217;52.586;13.442;2022-08-04T01:39:50;20.50;99.90
43627;DHT22;29217;52.586;13.442;2022-08-04T01:42:19;20.40;99.90
43627;DHT22;29217;52.586;13.442;2022-08-04T01:44:47;20.40;99.90
43627;DHT22;29217;52.586;13.442;2022-08-04T01:47:16;20.40;99.90
43627;DHT22;29217;52.586;13.442;2022-08-04T01:49:45;20.30;99.90
43627;DHT22;29217;52.586;13.442;2022-08-04T01:52:15;20.30;99.90
43627;DHT22;29217;52.586;13.442;2022-08-04T01:54:41;20.20;99.90
43627;DHT22;29217;52.586;13.442;2022-08-04T01:57:09;20.00;99.90
43627;DHT22;29217;52.586;13.442;2022-08-04T01:59:36;19.90;99.90
43627;DHT22;29217;52.586;13.442;2022-08-04T02:02:03;20.00;99.90
43627;DHT22;29217;52.586;13.442;2022-08-04T02:04:29;20.00;99.90
43627;DHT22;29217;52.586;13.442;2022-08-04T02:13:05;20.00;99.90
43627;DHT22;29217;52.586;13.442;2022-08-04T02:21:03;19.80;99.90
43627;DHT22;29217;52.586;13.442;2022-08-04T02:25:57;19.70;99.90
43627;DHT22;29217;52.586;13.442;2022-08-04T02:31:25;19.70;99.90
43627;DHT22;29217;52.586;13.442;2022-08-04T02:34:08;19.60;99.90
43627;DHT22;29217;52.586;13.442;2022-08-04T02:36:36;19.70;99.90
43627;DHT22;29217;52.586;13.442;2022-08-04T02:39:08;19.60;99.90
43627;DHT22;29217;52.586;13.442;2022-08-04T02:41:34;19.60;99.90
43627;DHT22;29217;52.586;13.442;2022-08-04T02:44:02;19.60;99.90
43627;DHT22;29217;52.586;13.442;2022-08-04T02:46:30;19.60;99.90
43627;DHT22;29217;52.586;13.442;2022-08-04T02:48:56;19.60;99.90
43627;DHT22;29217;52.586;13.442;2022-08-04T02:51:27;19.60;99.90
43627;DHT22;29217;52.586;13.442;2022-08-04T02:53:57;19.60;99.90
43627;DHT22;29217;52.586;13.442;2022-08-04T02:56:26;19.50;99.90
43627;DHT22;29217;52.586;13.442;2022-08-04T02:58:59;19.50;99.90
43627;DHT22;29217;52.586;13.442;2022-08-04T03:01:25;19.50;99.90
43627;DHT22;29217;52.586;13.442;2022-08-04T03:10:23;19.40;99.90
43627;DHT22;29217;52.586;13.442;2022-08-04T03:13:21;19.30;99.90
43627;DHT22;29217;52.586;13.442;2022-08-04T03:16:00;19.30;99.90
43627;DHT22;29217;52.586;13.442;2022-08-04T03:35:10;19.00;99.90
43627;DHT22;29217;52.586;13.442;2022-08-04T03:51:41;18.90;99.90
43627;DHT22;29217;52.586;13.442;2022-08-04T03:57:50;18.90;99.90
43627;DHT22;29217;52.586;13.442;2022-08-04T04:03:00;18.80;99.90
43627;DHT22;29217;52.586;13.442;2022-08-04T04:08:35;18.80;99.90
43627;DHT22;29217;52.586;13.442;2022-08-04T04:11:32;18.90;99.90
43627;DHT22;29217;52.586;13.442;2022-08-04T04:14:42;18.90;99.90
43627;DHT22;29217;52.586;13.442;2022-08-04T04:20:13;18.90;99.90
43627;DHT22;29217;52.586;13.442;2022-08-04T04:25:43;18.90;99.90
43627;DHT22;29217;52.586;13.442;2022-08-04T04:28:49;18.90;99.90
43627;DHT22;29217;52.586;13.442;2022-08-04T04:37:25;19.00;99.90
43627;DHT22;29217;52.586;13.442;2022-08-04T04:40:46;19.00;99.90
43627;DHT22;29217;52.586;13.442;2022-08-04T04:43:08;19.10;99.90
43627;DHT22;29217;52.586;13.442;2022-08-04T04:48:16;19.30;99.90
43627;DHT22;29217;52.586;13.442;2022-08-04T04:56:33;19.50;99.90
43627;DHT22;29217;52.586;13.442;2022-08-04T04:59:02;19.60;99.90
43627;DHT22;29217;52.586;13.442;2022-08-04T05:04:28;19.70;99.90
43627;DHT22;29217;52.586;13.442;2022-08-04T05:10:21;19.90;99.90
43627;DHT22;29217;52.586;13.442;2022-08-04T05:15:29;20.10;99.90
43627;DHT22;29217;52.586;13.442;2022-08-04T05:17:57;20.30;99.90
43627;DHT22;29217;52.586;13.442;2022-08-04T05:20:28;20.40;99.90
43627;DHT22;29217;52.586;13.442;2022-08-04T05:25:38;20.70;99.90
43627;DHT22;29217;52.586;13.442;2022-08-04T05:28:15;20.80;99.90
43627;DHT22;29217;52.586;13.442;2022-08-04T05:30:46;21.00;99.90
43627;DHT22;29217;52.586;13.442;2022-08-04T05:33:20;21.10;99.90
43627;DHT22;29217;52.586;13.442;2022-08-04T05:35:49;21.20;99.90
43627;DHT22;29217;52.586;13.442;2022-08-04T05:38:19;21.30;99.90
43627;DHT22;29217;52.586;13.442;2022-08-04T05:40:45;21.40;99.90
43627;DHT22;29217;52.586;13.442;2022-08-04T05:43:11;21.60;99.90
43627;DHT22;29217;52.586;13.442;2022-08-04T05:45:39;21.80;99.90
43627;DHT22;29217;52.586;13.442;2022-08-04T05:48:06;21.90;99.90
43627;DHT22;29217;52.586;13.442;2022-08-04T05:50:33;22.00;99.90
43627;DHT22;29217;52.586;13.442;2022-08-04T05:52:59;22.20;99.90
43627;DHT22;29217;52.586;13.442;2022-08-04T05:55:27;22.30;99.90
43627;DHT22;29217;52.586;13.442;2022-08-04T05:57:54;22.40;99.90
43627;DHT22;29217;52.586;13.442;2022-08-04T06:00:22;22.50;99.90
43627;DHT22;29217;52.586;13.442;2022-08-04T06:02:49;22.70;99.90
43627;DHT22;29217;52.586;13.442;2022-08-04T06:05:16;22.80;99.90
43627;DHT22;29217;52.586;13.442;2022-08-04T06:07:43;22.90;99.90
43627;DHT22;29217;52.586;13.442;2022-08-04T06:10:09;23.00;99.90
43627;DHT22;29217;52.586;13.442;2022-08-04T06:12:51;23.10;99.90
43627;DHT22;29217;52.586;13.442;2022-08-04T06:15:19;23.10;99.90
43627;DHT22;29217;52.586;13.442;2022-08-04T06:17:48;23.30;99.90
43627;DHT22;29217;52.586;13.442;2022-08-04T06:20:15;23.40;99.90
43627;DHT22;29217;52.586;13.442;2022-08-04T06:22:42;23.50;99.90
43627;DHT22;29217;52.586;13.442;2022-08-04T06:25:10;23.70;99.90
43627;DHT22;29217;52.586;13.442;2022-08-04T06:27:39;23.80;99.90
43627;DHT22;29217;52.586;13.442;2022-08-04T06:30:05;23.90;99.90
43627;DHT22;29217;52.586;13.442;2022-08-04T06:32:35;24.10;99.90
43627;DHT22;29217;52.586;13.442;2022-08-04T06:35:05;24.10;99.90
43627;DHT22;29217;52.586;13.442;2022-08-04T06:37:33;24.30;99.90
43627;DHT22;29217;52.586;13.442;2022-08-04T06:40:02;24.40;99.90
43627;DHT22;29217;52.586;13.442;2022-08-04T06:42:30;24.50;99.90
43627;DHT22;29217;52.586;13.442;2022-08-04T06:44:57;24.80;99.90
43627;DHT22;29217;52.586;13.442;2022-08-04T06:47:24;24.90;99.90
43627;DHT22;29217;52.586;13.442;2022-08-04T06:49:51;25.00;99.90
43627;DHT22;29217;52.586;13.442;2022-08-04T06:52:18;25.20;99.90
43627;DHT22;29217;52.586;13.442;2022-08-04T06:54:49;25.30;99.90
43627;DHT22;29217;52.586;13.442;2022-08-04T06:57:21;25.40;99.90
43627;DHT22;29217;52.586;13.442;2022-08-04T06:59:49;25.50;99.90
43627;DHT22;29217;52.586;13.442;2022-08-04T07:02:19;25.60;99.90
43627;DHT22;29217;52.586;13.442;2022-08-04T07:04:46;25.70;99.90
43627;DHT22;29217;52.586;13.442;2022-08-04T07:07:13;25.80;99.90
43627;DHT22;29217;52.586;13.442;2022-08-04T07:09:39;26.00;99.90
43627;DHT22;29217;52.586;13.442;2022-08-04T07:12:06;26.10;99.90
43627;DHT22;29217;52.586;13.442;2022-08-04T07:14:32;26.30;99.90
43627;DHT22;29217;52.586;13.442;2022-08-04T07:17:03;26.40;99.90
43627;DHT22;29217;52.586;13.442;2022-08-04T07:19:30;26.60;99.90
43627;DHT22;29217;52.586;13.442;2022-08-04T07:21:58;26.60;99.90
43627;DHT22;29217;52.586;13.442;2022-08-04T07:24:35;26.70;99.90
43627;DHT22;29217;52.586;13.442;2022-08-04T07:27:02;26.80;99.90
43627;DHT22;29217;52.586;13.442;2022-08-04T07:29:28;27.00;99.90
43627;DHT22;29217;52.586;13.442;2022-08-04T07:31:55;27.00;99.90
43627;DHT22;29217;52.586;13.442;2022-08-04T07:34:23;27.10;99.90
43627;DHT22;29217;52.586;13.442;2022-08-04T07:36:51;27.20;99.90
43627;DHT22;29217;52.586;13.442;2022-08-04T07:39:17;27.30;99.90
43627;DHT22;29217;52.586;13.442;2022-08-04T07:41:44;27.50;99.90
43627;DHT22;29217;52.586;13.442;2022-08-04T07:44:13;27.60;99.90
43627;DHT22;29217;52.586;13.442;2022-08-04T07:46:38;27.70;99.90
43627;DHT22;29217;52.586;13.442;2022-08-04T07:49:04;27.80;99.90
43627;DHT22;29217;52.586;13.442;2022-08-04T07:51:31;27.90;99.90
43627;DHT22;29217;52.586;13.442;2022-08-04T07:53:57;28.10;99.90
43627;DHT22;29217;52.586;13.442;2022-08-04T07:56:25;28.20;99.90
43627;DHT22;29217;52.586;13.442;2022-08-04T07:58:51;28.30;99.90
43627;DHT22;29217;52.586;13.442;2022-08-04T08:01:18;28.30;99.90
43627;DHT22;29217;52.586;13.442;2022-08-04T08:03:43;28.50;99.90
43627;DHT22;29217;52.586;13.442;2022-08-04T08:06:10;28.50;99.90
43627;DHT22;29217;52.586;13.442;2022-08-04T08:08:38;28.60;99.90
43627;DHT22;29217;52.586;13.442;2022-08-04T08:11:08;28.60;99.90
43627;DHT22;29217;52.586;13.442;2022-08-04T08:13:35;28.70;99.90
43627;DHT22;29217;52.586;13.442;2022-08-04T08:16:02;28.90;99.90
43627;DHT22;29217;52.586;13.442;2022-08-04T08:18:29;29.00;99.90
43627;DHT22;29217;52.586;13.442;2022-08-04T08:20:55;29.10;99.90
43627;DHT22;29217;52.586;13.442;2022-08-04T08:23:21;29.10;99.90
43627;DHT22;29217;52.586;13.442;2022-08-04T08:25:47;29.20;99.90
43627;DHT22;29217;52.586;13.442;2022-08-04T08:28:12;29.40;99.90
43627;DHT22;29217;52.586;13.442;2022-08-04T08:30:40;29.50;99.90
43627;DHT22;29217;52.586;13.442;2022-08-04T08:33:08;29.50;99.90
43627;DHT22;29217;52.586;13.442;2022-08-04T08:35:46;29.50;99.90
43627;DHT22;29217;52.586;13.442;2022-08-04T08:38:15;29.70;99.90
43627;DHT22;29217;52.586;13.442;2022-08-04T08:41:20;29.70;99.90
43627;DHT22;29217;52.586;13.442;2022-08-04T08:50:02;30.00;99.90
43627;DHT22;29217;52.586;13.442;2022-08-04T08:52:51;30.10;99.90
43627;DHT22;29217;52.586;13.442;2022-08-04T08:55:36;30.20;99.90
43627;DHT22;29217;52.586;13.442;2022-08-04T08:58:27;30.40;99.90
43627;DHT22;29217;52.586;13.442;2022-08-04T09:04:28;30.70;99.90
43627;DHT22;29217;52.586;13.442;2022-08-04T09:07:26;30.90;99.90
43627;DHT22;29217;52.586;13.442;2022-08-04T09:10:14;31.00;99.90
43627;DHT22;29217;52.586;13.442;2022-08-04T09:13:04;31.10;99.90
43627;DHT22;29217;52.586;13.442;2022-08-04T09:18:58;31.40;99.90
43627;DHT22;29217;52.586;13.442;2022-08-04T09:21:32;31.60;99.90
43627;DHT22;29217;52.586;13.442;2022-08-04T09:26:47;31.70;99.90
43627;DHT22;29217;52.586;13.442;2022-08-04T09:29:20;31.70;99.90
43627;DHT22;29217;52.586;13.442;2022-08-04T09:32:10;31.80;99.90
43627;DHT22;29217;52.586;13.442;2022-08-04T09:37:35;32.10;99.90
43627;DHT22;29217;52.586;13.442;2022-08-04T09:40:14;32.20;99.90
43627;DHT22;29217;52.586;13.442;2022-08-04T09:42:55;32.20;99.90
43627;DHT22;29217;52.586;13.442;2022-08-04T09:45:35;32.40;99.90
43627;DHT22;29217;52.586;13.442;2022-08-04T09:48:06;32.40;99.90
43627;DHT22;29217;52.586;13.442;2022-08-04T09:50:36;32.60;99.90
43627;DHT22;29217;52.586;13.442;2022-08-04T09:58:51;32.60;99.90
43627;DHT22;29217;52.586;13.442;2022-08-04T10:01:20;32.70;99.90
43627;DHT22;29217;52.586;13.442;2022-08-04T10:03:54;32.80;99.90
43627;DHT22;29217;52.586;13.442;2022-08-04T10:06:35;32.90;99.90
43627;DHT22;29217;52.586;13.442;2022-08-04T10:12:00;33.00;99.90
43627;DHT22;29217;52.586;13.442;2022-08-04T10:14:45;33.20;99.90
43627;DHT22;29217;52.586;13.442;2022-08-04T10:20:12;33.20;99.90
43627;DHT22;29217;52.586;13.442;2022-08-04T10:22:44;33.30;99.90
43627;DHT22;29217;52.586;13.442;2022-08-04T10:25:28;33.40;99.90
43627;DHT22;29217;52.586;13.442;2022-08-04T10:27:58;33.80;99.90
43627;DHT22;29217;52.586;13.442;2022-08-04T10:30:25;33.80;99.90
43627;DHT22;29217;52.586;13.442;2022-08-04T10:32:59;33.80;99.90
43627;DHT22;29217;52.586;13.442;2022-08-04T10:35:32;33.70;99.90
43627;DHT22;29217;52.586;13.442;2022-08-04T10:38:09;33.60;99.90
43627;DHT22;29217;52.586;13.442;2022-08-04T10:41:01;33.90;99.90
43627;DHT22;29217;52.586;13.442;2022-08-04T10:43:47;34.20;99.90
43627;DHT22;29217;52.586;13.442;2022-08-04T10:46:20;34.40;99.90
43627;DHT22;29217;52.586;13.442;2022-08-04T10:48:56;34.40;99.90
43627;DHT22;29217;52.586;13.442;2022-08-04T10:54:07;34.60;99.90
43627;DHT22;29217;52.586;13.442;2022-08-04T10:56:38;34.60;99.90
43627;DHT22;29217;52.586;13.442;2022-08-04T10:59:11;34.80;99.90
43627;DHT22;29217;52.586;13.442;2022-08-04T11:01:39;34.80;99.90
43627;DHT22;29217;52.586;13.442;2022-08-04T11:04:14;34.90;99.90
43627;DHT22;29217;52.586;13.442;2022-08-04T11:06:43;34.90;99.70
43627;DHT22;29217;52.586;13.442;2022-08-04T11:09:09;35.00;99.80
43627;DHT22;29217;52.586;13.442;2022-08-04T11:11:40;35.30;99.10
43627;DHT22;29217;52.586;13.442;2022-08-04T11:14:17;35.50;99.20
43627;DHT22;29217;52.586;13.442;2022-08-04T11:17:04;35.70;99.50
43627;DHT22;29217;52.586;13.442;2022-08-04T11:19:52;35.80;98.60
43627;DHT22;29217;52.586;13.442;2022-08-04T11:25:12;37.20;96.80
43627;DHT22;29217;52.586;13.442;2022-08-04T11:28:03;37.80;95.50
43627;DHT22;29217;52.586;13.442;2022-08-04T11:30:56;38.20;95.90
43627;DHT22;29217;52.586;13.442;2022-08-04T11:39:29;38.80;94.80
43627;DHT22;29217;52.586;13.442;2022-08-04T11:42:17;39.40;93.50
43627;DHT22;29217;52.586;13.442;2022-08-04T11:44:54;39.60;93.10
43627;DHT22;29217;52.586;13.442;2022-08-04T11:47:26;40.10;92.30
43627;DHT22;29217;52.586;13.442;2022-08-04T11:50:34;40.30;92.50
43627;DHT22;29217;52.586;13.442;2022-08-04T11:53:03;40.80;91.20
43627;DHT22;29217;52.586;13.442;2022-08-04T11:55:30;40.40;90.90
43627;DHT22;29217;52.586;13.442;2022-08-04T11:57:56;40.20;90.90
43627;DHT22;29217;52.586;13.442;2022-08-04T12:00:24;39.80;91.50
43627;DHT22;29217;52.586;13.442;2022-08-04T12:03:14;39.50;90.60
43627;DHT22;29217;52.586;13.442;2022-08-04T12:06:12;39.30;91.10
43627;DHT22;29217;52.586;13.442;2022-08-04T12:09:13;39.00;91.50
43627;DHT22;29217;52.586;13.442;2022-08-04T12:11:51;38.70;92.10
43627;DHT22;29217;52.586;13.442;2022-08-04T12:14:46;38.20;93.00
43627;DHT22;29217;52.586;13.442;2022-08-04T12:17:23;38.30;92.40
43627;DHT22;29217;52.586;13.442;2022-08-04T12:19:52;38.50;91.50
43627;DHT22;29217;52.586;13.442;2022-08-04T12:22:25;38.40;91.60
43627;DHT22;29217;52.586;13.442;2022-08-04T12:24:57;38.60;91.10
43627;DHT22;29217;52.586;13.442;2022-08-04T12:27:28;38.80;90.80
43627;DHT22;29217;52.586;13.442;2022-08-04T12:29:55;39.00;89.70
43627;DHT22;29217;52.586;13.442;2022-08-04T12:32:28;39.00;90.00
43627;DHT22;29217;52.586;13.442;2022-08-04T12:35:11;39.10;90.40
43627;DHT22;29217;52.586;13.442;2022-08-04T12:40:43;39.40;89.60
43627;DHT22;29217;52.586;13.442;2022-08-04T12:43:14;39.40;89.30
43627;DHT22;29217;52.586;13.442;2022-08-04T12:45:53;39.10;87.80
43627;DHT22;29217;52.586;13.442;2022-08-04T12:48:21;38.90;87.00
43627;DHT22;29217;52.586;13.442;2022-08-04T12:50:54;38.50;87.40
43627;DHT22;29217;52.586;13.442;2022-08-04T12:53:41;38.50;91.10
43627;DHT22;29217;52.586;13.442;2022-08-04T12:56:12;38.50;88.40
43627;DHT22;29217;52.586;13.442;2022-08-04T12:58:43;38.40;89.30
43627;DHT22;29217;52.586;13.442;2022-08-04T13:01:20;38.20;88.40
43627;DHT22;29217;52.586;13.442;2022-08-04T13:03:52;37.90;87.70
43627;DHT22;29217;52.586;13.442;2022-08-04T13:06:24;37.90;88.20
43627;DHT22;29217;52.586;13.442;2022-08-04T13:08:52;37.70;88.00
43627;DHT22;29217;52.586;13.442;2022-08-04T13:11:20;37.80;88.80
43627;DHT22;29217;52.586;13.442;2022-08-04T13:13:51;38.00;88.80
43627;DHT22;29217;52.586;13.442;2022-08-04T13:16:17;38.20;88.60
43627;DHT22;29217;52.586;13.442;2022-08-04T13:18:52;38.30;87.60
43627;DHT22;29217;52.586;13.442;2022-08-04T13:21:20;38.30;88.10
43627;DHT22;29217;52.586;13.442;2022-08-04T13:23:49;38.40;87.60
43627;DHT22;29217;52.586;13.442;2022-08-04T13:26:17;38.50;86.80
43627;DHT22;29217;52.586;13.442;2022-08-04T13:28:46;38.60;87.50
43627;DHT22;29217;52.586;13.442;2022-08-04T13:31:15;38.60;87.40
43627;DHT22;29217;52.586;13.442;2022-08-04T13:33:44;38.70;86.40
43627;DHT22;29217;52.586;13.442;2022-08-04T13:36:10;38.60;84.00
43627;DHT22;29217;52.586;13.442;2022-08-04T13:38:43;38.50;85.90
43627;DHT22;29217;52.586;13.442;2022-08-04T13:41:10;38.50;84.70
43627;DHT22;29217;52.586;13.442;2022-08-04T13:43:42;38.40;84.50
43627;DHT22;29217;52.586;13.442;2022-08-04T13:46:08;38.50;85.80
43627;DHT22;29217;52.586;13.442;2022-08-04T13:48:39;38.50;85.00
43627;DHT22;29217;52.586;13.442;2022-08-04T13:51:09;38.60;85.50
43627;DHT22;29217;52.586;13.442;2022-08-04T13:53:37;38.70;84.90
43627;DHT22;29217;52.586;13.442;2022-08-04T13:56:06;38.90;84.70
43627;DHT22;29217;52.586;13.442;2022-08-04T13:58:34;38.90;83.20
43627;DHT22;29217;52.586;13.442;2022-08-04T14:01:15;38.70;82.80
43627;DHT22;29217;52.586;13.442;2022-08-04T14:04:11;38.40;83.80
43627;DHT22;29217;52.586;13.442;2022-08-04T14:06:58;38.00;83.40
43627;DHT22;29217;52.586;13.442;2022-08-04T14:09:26;38.00;83.30
43627;DHT22;29217;52.586;13.442;2022-08-04T14:11:54;38.10;83.00
43627;DHT22;29217;52.586;13.442;2022-08-04T14:14:25;37.90;83.00
43627;DHT22;29217;52.586;13.442;2022-08-04T14:19:24;37.90;82.90
43627;DHT22;29217;52.586;13.442;2022-08-04T14:21:49;38.30;83.90
43627;DHT22;29217;52.586;13.442;2022-08-04T14:24:26;38.80;80.10
43627;DHT22;29217;52.586;13.442;2022-08-04T14:26:57;39.10;80.80
43627;DHT22;29217;52.586;13.442;2022-08-04T14:29:23;39.00;78.70
43627;DHT22;29217;52.586;13.442;2022-08-04T14:31:49;38.90;78.50
43627;DHT22;29217;52.586;13.442;2022-08-04T14:34:28;38.80;78.10
43627;DHT22;29217;52.586;13.442;2022-08-04T14:36:54;38.70;78.60
43627;DHT22;29217;52.586;13.442;2022-08-04T14:39:42;38.60;79.40
43627;DHT22;29217;52.586;13.442;2022-08-04T14:42:09;38.40;79.60
43627;DHT22;29217;52.586;13.442;2022-08-04T14:44:56;38.30;79.90
43627;DHT22;29217;52.586;13.442;2022-08-04T14:47:38;38.10;79.60
43627;DHT22;29217;52.586;13.442;2022-08-04T14:50:05;38.00;79.20
43627;DHT22;29217;52.586;13.442;2022-08-04T14:52:32;38.10;79.30
43627;DHT22;29217;52.586;13.442;2022-08-04T14:55:00;38.20;79.50
43627;DHT22;29217;52.586;13.442;2022-08-04T14:57:38;38.40;79.30
43627;DHT22;29217;52.586;13.442;2022-08-04T15:00:04;38.30;79.10
43627;DHT22;29217;52.586;13.442;2022-08-04T15:02:30;38.20;80.70
43627;DHT22;29217;52.586;13.442;2022-08-04T15:04:56;38.00;78.30
43627;DHT22;29217;52.586;13.442;2022-08-04T15:07:23;37.90;80.20
43627;DHT22;29217;52.586;13.442;2022-08-04T15:09:49;37.70;79.90
43627;DHT22;29217;52.586;13.442;2022-08-04T15:12:14;37.50;78.60
43627;DHT22;29217;52.586;13.442;2022-08-04T15:14:40;37.40;78.80
43627;DHT22;29217;52.586;13.442;2022-08-04T15:17:06;37.30;79.40
43627;DHT22;29217;52.586;13.442;2022-08-04T15:19:32;37.10;80.00
43627;DHT22;29217;52.586;13.442;2022-08-04T15:21:58;37.10;79.80
43627;DHT22;29217;52.586;13.442;2022-08-04T15:24:23;36.90;80.40
43627;DHT22;29217;52.586;13.442;2022-08-04T15:26:51;36.90;81.60
43627;DHT22;29217;52.586;13.442;2022-08-04T15:29:36;36.70;81.00
43627;DHT22;29217;52.586;13.442;2022-08-04T15:32:05;36.70;81.30
43627;DHT22;29217;52.586;13.442;2022-08-04T15:34:46;36.60;81.70
43627;DHT22;29217;52.586;13.442;2022-08-04T15:37:15;36.50;80.70
43627;DHT22;29217;52.586;13.442;2022-08-04T15:39:54;36.40;81.70
43627;DHT22;29217;52.586;13.442;2022-08-04T15:45:24;36.30;82.20
43627;DHT22;29217;52.586;13.442;2022-08-04T15:50:27;36.20;81.80
43627;DHT22;29217;52.586;13.442;2022-08-04T15:52:59;36.00;82.60
43627;DHT22;29217;52.586;13.442;2022-08-04T15:55:41;36.00;82.50
43627;DHT22;29217;52.586;13.442;2022-08-04T15:58:11;36.00;81.90
43627;DHT22;29217;52.586;13.442;2022-08-04T16:21:32;35.40;84.40
43627;DHT22;29217;52.586;13.442;2022-08-04T16:24:08;35.40;83.60
43627;DHT22;29217;52.586;13.442;2022-08-04T16:29:02;35.30;84.50
43627;DHT22;29217;52.586;13.442;2022-08-04T16:31:29;35.20;85.30
43627;DHT22;29217;52.586;13.442;2022-08-04T16:33:59;35.00;85.50
43627;DHT22;29217;52.586;13.442;2022-08-04T16:37:07;35.10;86.20
43627;DHT22;29217;52.586;13.442;2022-08-04T16:39:33;35.20;85.70
43627;DHT22;29217;52.586;13.442;2022-08-04T16:41:59;35.40;85.20
43627;DHT22;29217;52.586;13.442;2022-08-04T16:45:00;35.50;86.60
43627;DHT22;29217;52.586;13.442;2022-08-04T16:50:12;35.70;86.50
43627;DHT22;29217;52.586;13.442;2022-08-04T16:52:42;35.70;85.50
43627;DHT22;29217;52.586;13.442;2022-08-04T16:55:09;35.60;84.50
43627;DHT22;29217;52.586;13.442;2022-08-04T16:57:35;35.60;84.20
43627;DHT22;29217;52.586;13.442;2022-08-04T17:00:00;35.50;84.50
43627;DHT22;29217;52.586;13.442;2022-08-04T17:02:26;35.40;84.60
43627;DHT22;29217;52.586;13.442;2022-08-04T17:04:52;35.40;84.80
43627;DHT22;29217;52.586;13.442;2022-08-04T17:07:17;35.40;84.50
43627;DHT22;29217;52.586;13.442;2022-08-04T17:09:50;35.40;85.10
43627;DHT22;29217;52.586;13.442;2022-08-04T17:12:15;35.40;84.80
43627;DHT22;29217;52.586;13.442;2022-08-04T17:14:41;35.30;85.10
43627;DHT22;29217;52.586;13.442;2022-08-04T17:17:06;35.20;85.00
43627;DHT22;29217;52.586;13.442;2022-08-04T17:19:32;35.10;85.80
43627;DHT22;29217;52.586;13.442;2022-08-04T17:22:06;35.10;86.50
43627;DHT22;29217;52.586;13.442;2022-08-04T17:24:35;35.00;85.70
43627;DHT22;29217;52.586;13.442;2022-08-04T17:27:03;34.90;86.50
43627;DHT22;29217;52.586;13.442;2022-08-04T17:29:29;34.90;85.60
43627;DHT22;29217;52.586;13.442;2022-08-04T17:31:55;34.80;85.90
43627;DHT22;29217;52.586;13.442;2022-08-04T17:34:21;34.80;85.10
43627;DHT22;29217;52.586;13.442;2022-08-04T17:36:49;34.70;86.70
43627;DHT22;29217;52.586;13.442;2022-08-04T17:39:19;34.50;86.90
43627;DHT22;29217;52.586;13.442;2022-08-04T17:41:46;34.50;86.90
43627;DHT22;29217;52.586;13.442;2022-08-04T17:44:12;34.30;87.50
43627;DHT22;29217;52.586;13.442;2022-08-04T17:46:38;34.20;88.60
43627;DHT22;29217;52.586;13.442;2022-08-04T17:51:54;34.20;87.40
43627;DHT22;29217;52.586;13.442;2022-08-04T17:57:11;34.00;88.60
43627;DHT22;29217;52.586;13.442;2022-08-04T17:59:42;33.90;89.20
43627;DHT22;29217;52.586;13.442;2022-08-04T18:02:08;33.80;89.50
43627;DHT22;29217;52.586;13.442;2022-08-04T18:07:13;33.60;89.90
43627;DHT22;29217;52.586;13.442;2022-08-04T18:09:50;33.50;91.70
43627;DHT22;29217;52.586;13.442;2022-08-04T18:12:29;33.40;91.80
43627;DHT22;29217;52.586;13.442;2022-08-04T18:15:06;33.20;91.60
43627;DHT22;29217;52.586;13.442;2022-08-04T18:17:42;33.00;93.80
43627;DHT22;29217;52.586;13.442;2022-08-04T18:20:16;32.80;93.90
43627;DHT22;29217;52.586;13.442;2022-08-04T18:22:44;32.50;93.90
43627;DHT22;29217;52.586;13.442;2022-08-04T18:25:12;32.30;93.80
43627;DHT22;29217;52.586;13.442;2022-08-04T18:27:51;32.00;96.20
43627;DHT22;29217;52.586;13.442;2022-08-04T18:30:22;31.80;96.30
43627;DHT22;29217;52.586;13.442;2022-08-04T18:32:48;31.60;95.00
43627;DHT22;29217;52.586;13.442;2022-08-04T18:35:14;31.40;96.20
43627;DHT22;29217;52.586;13.442;2022-08-04T18:37:41;31.20;94.40
43627;DHT22;29217;52.586;13.442;2022-08-04T18:40:08;31.00;95.80
43627;DHT22;29217;52.586;13.442;2022-08-04T18:42:34;30.80;96.40
43627;DHT22;29217;52.586;13.442;2022-08-04T18:45:01;30.70;97.20
43627;DHT22;29217;52.586;13.442;2022-08-04T18:47:27;30.40;97.60
43627;DHT22;29217;52.586;13.442;2022-08-04T18:49:53;30.30;97.80
43627;DHT22;29217;52.586;13.442;2022-08-04T18:52:19;30.20;97.90
43627;DHT22;29217;52.586;13.442;2022-08-04T18:54:45;30.00;97.70
43627;DHT22;29217;52.586;13.442;2022-08-04T18:57:10;29.90;97.90
43627;DHT22;29217;52.586;13.442;2022-08-04T18:59:36;29.80;98.90
43627;DHT22;29217;52.586;13.442;2022-08-04T19:02:01;29.60;98.70
43627;DHT22;29217;52.586;13.442;2022-08-04T19:04:27;29.60;98.90
43627;DHT22;29217;52.586;13.442;2022-08-04T19:06:53;29.30;99.90
43627;DHT22;29217;52.586;13.442;2022-08-04T19:09:18;29.20;99.90
43627;DHT22;29217;52.586;13.442;2022-08-04T19:11:44;29.00;99.90